createdAt,value
2023-05-10T00:02:25.705Z,99398.34
2023-05-10T00:04:52.268Z,99390.97
2023-05-10T00:07:18.889Z,99395.03
2023-05-10T00:09:46.315Z,99398.72
2023-05-10T00:12:12.677Z,99395.81
2023-05-10T00:14:39.075Z,99395.19
2023-05-10T00:17:05.560Z,99394.13
2023-05-10T00:19:32.011Z,99388.56
2023-05-10T00:21:58.395Z,99390.00
2023-05-10T00:24:24.933Z,99393.03
2023-05-10T00:26:51.365Z,99386.81
2023-05-10T00:29:18.037Z,99391.13
2023-05-10T00:31:44.457Z,99388.84
2023-05-10T00:34:11.120Z,99387.00
2023-05-10T00:36:37.703Z,99380.00
2023-05-10T00:39:04.568Z,99381.75
2023-05-10T00:41:34.263Z,99382.75
2023-05-10T00:44:01.607Z,99368.16
2023-05-10T00:46:28.042Z,99375.72
2023-05-10T00:48:55.107Z,99364.63
2023-05-10T00:51:21.643Z,99365.00
2023-05-10T00:53:49.394Z,99362.94
2023-05-10T00:56:16.833Z,99370.72
2023-05-10T00:58:43.743Z,99364.63
2023-05-10T01:01:11.725Z,99363.72
2023-05-10T01:03:38.437Z,99375.50
2023-05-10T01:06:05.151Z,99367.78
2023-05-10T01:08:31.512Z,99360.78
2023-05-10T01:10:58.051Z,99368.91
2023-05-10T01:13:32.479Z,99357.34
2023-05-10T01:15:59.487Z,99369.41
2023-05-10T01:18:26.910Z,99361.16
2023-05-10T01:21:06.513Z,99359.41
2023-05-10T01:23:54.741Z,99358.47
2023-05-10T01:26:29.321Z,99350.59
2023-05-10T01:29:06.926Z,99362.16
2023-05-10T01:31:52.058Z,99359.63
2023-05-10T01:34:24.630Z,99355.94
2023-05-10T01:37:04.826Z,99363.66
2023-05-10T01:39:37.378Z,99355.78
2023-05-10T01:42:15.124Z,99347.53
2023-05-10T01:44:53.376Z,99354.88
2023-05-10T01:48:07.545Z,99340.94
2023-05-10T01:50:36.471Z,99359.84
2023-05-10T01:53:06.783Z,99351.13
2023-05-10T01:55:37.933Z,99354.16
2023-05-10T01:58:10.996Z,99357.34
2023-05-10T02:00:40.802Z,99346.78
2023-05-10T02:03:09.624Z,99349.06
2023-05-10T02:05:37.476Z,99350.84
2023-05-10T02:08:06.974Z,99347.91
2023-05-10T02:10:35.568Z,99347.53
2023-05-10T02:13:03.297Z,99348.72
2023-05-10T02:15:30.773Z,99347.81
2023-05-10T02:17:59.279Z,99347.00
2023-05-10T02:20:27.309Z,99340.00
2023-05-10T02:22:56.777Z,99348.19
2023-05-10T02:25:24.447Z,99343.69
2023-05-10T02:27:52.278Z,99344.97
2023-05-10T02:30:20.423Z,99339.94
2023-05-10T02:32:49.968Z,99340.22
2023-05-10T02:35:20.503Z,99345.53
2023-05-10T02:37:48.698Z,99342.22
2023-05-10T02:40:18.949Z,99345.25
2023-05-10T02:42:49.763Z,99340.94
2023-05-10T02:45:20.500Z,99342.41
2023-05-10T02:47:47.073Z,99338.06
2023-05-10T02:50:13.939Z,99341.53
2023-05-10T02:52:45.306Z,99336.13
2023-05-10T02:55:15.014Z,99337.81
2023-05-10T02:57:52.044Z,99341.00
2023-05-10T03:00:18.707Z,99340.81
2023-05-10T03:02:45.207Z,99342.53
2023-05-10T03:05:11.593Z,99340.44
2023-05-10T03:07:38.431Z,99344.91
2023-05-10T03:10:06.232Z,99342.34
2023-05-10T03:13:03.498Z,99349.31
2023-05-10T03:15:45.950Z,99340.66
2023-05-10T03:18:22.257Z,99350.38
2023-05-10T03:20:52.149Z,99341.69
2023-05-10T03:23:35.110Z,99340.94
2023-05-10T03:26:02.585Z,99340.13
2023-05-10T03:28:29.890Z,99338.09
2023-05-10T03:30:57.715Z,99343.75
2023-05-10T03:33:24.236Z,99333.84
2023-05-10T03:35:50.646Z,99330.22
2023-05-10T03:38:17.013Z,99325.25
2023-05-10T03:40:43.500Z,99318.41
2023-05-10T03:43:09.860Z,99328.84
2023-05-10T03:45:36.547Z,99324.69
2023-05-10T03:48:02.996Z,99322.50
2023-05-10T03:50:29.565Z,99342.13
2023-05-10T03:52:56.097Z,99350.03
2023-05-10T03:55:23.395Z,99345.72
2023-05-10T03:57:50.681Z,99345.53
2023-05-10T04:00:17.768Z,99346.72
2023-05-10T04:02:46.015Z,99346.06
2023-05-10T04:05:13.063Z,99352.84
2023-05-10T04:07:39.596Z,99349.38
2023-05-10T04:10:06.404Z,99355.34
2023-05-10T04:12:32.763Z,99354.50
2023-05-10T04:14:59.180Z,99350.38
2023-05-10T04:17:25.557Z,99348.03
2023-05-10T04:19:53.995Z,99346.94
2023-05-10T04:22:20.495Z,99351.22
2023-05-10T04:24:46.900Z,99349.84
2023-05-10T04:27:13.281Z,99346.69
2023-05-10T04:29:39.722Z,99344.47
2023-05-10T04:32:06.412Z,99328.00
2023-05-10T04:34:35.042Z,99339.53
2023-05-10T04:37:01.583Z,99342.03
2023-05-10T04:39:27.937Z,99339.28
2023-05-10T04:41:54.293Z,99344.94
2023-05-10T04:44:20.663Z,99337.34
2023-05-10T04:46:47.183Z,99341.47
2023-05-10T04:49:13.581Z,99334.16
2023-05-10T04:51:40.034Z,99323.97
2023-05-10T04:54:07.001Z,99322.03
2023-05-10T04:56:33.970Z,99324.63
2023-05-10T04:59:00.436Z,99313.41
2023-05-10T05:01:26.942Z,99326.31
2023-05-10T05:03:53.977Z,99329.09
2023-05-10T05:06:21.927Z,99329.75
2023-05-10T05:08:50.140Z,99329.53
2023-05-10T05:11:17.038Z,99317.50
2023-05-10T05:13:43.576Z,99326.78
2023-05-10T05:16:10.086Z,99321.53
2023-05-10T05:18:36.471Z,99323.59
2023-05-10T05:21:02.832Z,99323.00
2023-05-10T05:23:29.264Z,99332.50
2023-05-10T05:25:55.687Z,99322.75
2023-05-10T05:28:22.112Z,99330.34
2023-05-10T05:30:48.542Z,99324.25
2023-05-10T05:33:16.390Z,99329.72
2023-05-10T05:35:45.625Z,99318.69
2023-05-10T05:38:12.259Z,99307.53
2023-05-10T05:40:38.686Z,99317.53
2023-05-10T05:43:05.146Z,99306.94
2023-05-10T05:45:31.708Z,99311.56
2023-05-10T05:47:58.382Z,99320.44
2023-05-10T05:50:24.793Z,99323.91
2023-05-10T05:52:51.257Z,99318.41
2023-05-10T05:55:17.871Z,99324.81
2023-05-10T05:57:44.490Z,99325.28
2023-05-10T06:00:11.283Z,99331.03
2023-05-10T06:02:37.928Z,99338.44
2023-05-10T06:05:04.693Z,99322.94
2023-05-10T06:07:31.060Z,99329.09
2023-05-10T06:09:57.411Z,99329.59
2023-05-10T06:12:23.780Z,99341.13
2023-05-10T06:14:50.153Z,99339.47
2023-05-10T06:17:16.513Z,99340.72
2023-05-10T06:19:42.897Z,99337.66
2023-05-10T06:22:09.379Z,99346.16
2023-05-10T06:24:35.940Z,99341.25
2023-05-10T06:27:02.918Z,99345.00
2023-05-10T06:29:29.271Z,99347.06
2023-05-10T06:31:55.748Z,99347.91
2023-05-10T06:34:22.570Z,99344.66
2023-05-10T06:36:49.006Z,99350.03
2023-05-10T06:39:15.663Z,99358.66
2023-05-10T06:41:42.174Z,99344.50
2023-05-10T06:44:09.379Z,99352.13
2023-05-10T06:46:36.195Z,99345.56
2023-05-10T06:49:02.963Z,99346.00
2023-05-10T06:51:29.603Z,99348.06
2023-05-10T06:53:56.089Z,99339.84
2023-05-10T06:56:22.682Z,99346.03
2023-05-10T06:58:49.487Z,99331.69
2023-05-10T07:01:16.074Z,99344.44
2023-05-10T07:03:42.486Z,99348.56
2023-05-10T07:06:15.594Z,99342.81
2023-05-10T07:08:48.458Z,99348.97
2023-05-10T07:11:14.845Z,99342.41
2023-05-10T07:13:44.939Z,99335.19
2023-05-10T07:16:11.533Z,99345.28
2023-05-10T07:18:38.103Z,99342.41
2023-05-10T07:21:04.771Z,99343.84
2023-05-10T07:23:31.388Z,99344.88
2023-05-10T07:25:58.403Z,99346.94
2023-05-10T07:28:27.733Z,99340.97
2023-05-10T07:30:54.052Z,99350.22
2023-05-10T07:33:20.511Z,99337.88
2023-05-10T07:35:47.063Z,99350.22
2023-05-10T07:38:13.471Z,99339.31
2023-05-10T07:40:40.488Z,99337.47
2023-05-10T07:43:06.905Z,99350.44
2023-05-10T07:45:34.409Z,99347.34
2023-05-10T07:48:01.206Z,99340.53
2023-05-10T07:50:27.913Z,99342.78
2023-05-10T07:52:54.349Z,99340.34
2023-05-10T07:55:22.182Z,99347.53
2023-05-10T07:57:48.687Z,99336.19
2023-05-10T08:00:18.978Z,99346.47
2023-05-10T08:02:45.475Z,99342.75
2023-05-10T08:05:11.891Z,99343.59
2023-05-10T08:07:38.284Z,99344.00
2023-05-10T08:10:05.378Z,99336.97
2023-05-10T08:12:31.749Z,99340.47
2023-05-10T08:14:58.242Z,99339.88
2023-05-10T08:17:24.885Z,99339.88
2023-05-10T08:19:51.370Z,99343.75
2023-05-10T08:22:17.935Z,99337.34
2023-05-10T08:24:44.369Z,99344.31
2023-05-10T08:27:10.716Z,99344.47
2023-05-10T08:29:48.980Z,99348.81
2023-05-10T08:32:16.492Z,99344.66
2023-05-10T08:34:42.875Z,99352.03
2023-05-10T08:37:09.261Z,99350.31
2023-05-10T08:39:36.407Z,99356.94
2023-05-10T08:42:05.553Z,99353.19
2023-05-10T08:44:33.431Z,99355.69
2023-05-10T08:47:03.410Z,99365.91
2023-05-10T08:49:32.600Z,99363.28
2023-05-10T08:52:00.581Z,99369.66
2023-05-10T08:54:27.363Z,99368.41
2023-05-10T08:56:54.267Z,99374.78
2023-05-10T08:59:20.747Z,99377.41
2023-05-10T09:01:50.255Z,99380.72
2023-05-10T09:04:17.454Z,99379.22
2023-05-10T09:06:44.013Z,99380.84
2023-05-10T09:09:10.880Z,99391.31
2023-05-10T09:11:37.570Z,99383.09
2023-05-10T09:14:04.244Z,99388.66
2023-05-10T09:16:30.637Z,99385.13
2023-05-10T09:18:57.164Z,99383.00
2023-05-10T09:21:23.629Z,99385.00
2023-05-10T09:23:51.108Z,99386.00
2023-05-10T09:26:18.387Z,99387.38
2023-05-10T09:28:57.135Z,99382.81
2023-05-10T09:31:25.962Z,99382.94
2023-05-10T09:33:53.045Z,99395.28
2023-05-10T09:36:19.405Z,99384.78
2023-05-10T09:38:50.217Z,99394.63
2023-05-10T09:41:18.652Z,99383.88
2023-05-10T09:43:45.009Z,99396.88
2023-05-10T09:46:12.263Z,99388.97
2023-05-10T09:48:47.179Z,99390.00
2023-05-10T09:51:21.420Z,99389.13
2023-05-10T09:53:48.110Z,99391.09
2023-05-10T09:56:15.259Z,99394.69
2023-05-10T09:58:41.737Z,99392.28
2023-05-10T10:01:13.074Z,99390.47
2023-05-10T10:03:43.590Z,99396.94
2023-05-10T10:06:18.833Z,99390.22
2023-05-10T10:08:56.234Z,99386.88
2023-05-10T10:11:24.585Z,99389.84
2023-05-10T10:13:50.942Z,99388.50
2023-05-10T10:16:17.419Z,99382.75
2023-05-10T10:18:44.267Z,99386.66
2023-05-10T10:21:11.010Z,99391.22
2023-05-10T10:23:37.435Z,99389.84
2023-05-10T10:26:05.696Z,99384.69
2023-05-10T10:29:13.045Z,99396.19
2023-05-10T10:31:48.480Z,99381.28
2023-05-10T10:34:27.022Z,99389.03
2023-05-10T10:36:54.880Z,99384.53
2023-05-10T10:39:22.175Z,99382.00
2023-05-10T10:41:55.825Z,99380.88
2023-05-10T10:44:31.806Z,99383.66
2023-05-10T10:47:07.048Z,99388.19
2023-05-10T10:49:34.607Z,99388.56
2023-05-10T10:52:30.911Z,99399.44
2023-05-10T10:55:15.914Z,99403.66
2023-05-10T10:57:42.430Z,99400.78
2023-05-10T11:00:32.333Z,99382.19
2023-05-10T11:03:15.479Z,99394.69
2023-05-10T11:05:44.067Z,99391.47
2023-05-10T11:08:17.117Z,99392.94
2023-05-10T11:10:52.984Z,99389.03
2023-05-10T11:13:32.214Z,99391.56
2023-05-10T11:15:59.977Z,99390.31
2023-05-10T11:18:32.483Z,99400.16
2023-05-10T11:21:01.650Z,99388.03
2023-05-10T11:23:48.405Z,99396.59
2023-05-10T11:26:15.247Z,99389.63
2023-05-10T11:28:45.409Z,99394.66
2023-05-10T11:31:14.625Z,99391.84
2023-05-10T11:33:52.156Z,99404.75
2023-05-10T11:36:20.649Z,99395.63
2023-05-10T11:38:48.552Z,99389.53
2023-05-10T11:41:17.799Z,99395.84
2023-05-10T11:43:47.249Z,99393.25
2023-05-10T11:46:14.637Z,99393.25
2023-05-10T11:48:42.535Z,99395.28
2023-05-10T11:51:09.663Z,99398.56
2023-05-10T11:53:36.112Z,99396.44
2023-05-10T11:56:10.203Z,99399.03
2023-05-10T11:58:38.503Z,99401.94
2023-05-10T12:01:06.613Z,99399.72
2023-05-10T12:03:33.953Z,99404.06
2023-05-10T12:06:01.647Z,99410.75
2023-05-10T12:08:29.451Z,99408.06
2023-05-10T12:11:06.419Z,99410.38
2023-05-10T12:13:32.782Z,99417.78
2023-05-10T12:15:59.503Z,99407.59
2023-05-10T12:18:29.145Z,99408.28
2023-05-10T12:21:03.149Z,99409.44
2023-05-10T12:23:29.772Z,99403.38
2023-05-10T12:26:04.867Z,99405.72
2023-05-10T12:28:32.700Z,99407.84
2023-05-10T12:31:00.474Z,99419.28
2023-05-10T12:33:26.893Z,99411.81
2023-05-10T12:35:54.984Z,99408.66
2023-05-10T12:38:38.788Z,99426.22
2023-05-10T12:41:08.234Z,99418.09
2023-05-10T12:43:35.881Z,99410.84
2023-05-10T12:46:12.905Z,99419.66
2023-05-10T12:48:40.887Z,99421.63
2023-05-10T12:51:10.319Z,99427.25
2023-05-10T12:53:37.617Z,99431.69
2023-05-10T12:56:04.134Z,99417.63
2023-05-10T13:01:02.791Z,99421.44
2023-05-10T13:03:29.220Z,99434.72
2023-05-10T13:05:55.568Z,99433.09
2023-05-10T13:08:21.944Z,99434.22
2023-05-10T13:10:48.352Z,99430.47
2023-05-10T13:13:15.075Z,99422.09
2023-05-10T13:15:41.449Z,99433.00
2023-05-10T13:18:07.817Z,99430.19
2023-05-10T13:20:34.249Z,99429.56
2023-05-10T13:23:00.819Z,99430.81
2023-05-10T13:25:27.180Z,99433.72
2023-05-10T13:27:53.592Z,99426.38
2023-05-10T13:30:19.979Z,99436.50
2023-05-10T13:32:46.690Z,99435.06
2023-05-10T13:35:13.108Z,99423.09
2023-05-10T13:37:39.767Z,99419.97
2023-05-10T13:40:07.116Z,99430.09
2023-05-10T13:42:34.535Z,99432.16
2023-05-10T13:45:02.728Z,99431.16
2023-05-10T13:47:29.354Z,99426.44
2023-05-10T13:49:56.175Z,99422.19
2023-05-10T13:52:22.663Z,99431.69
2023-05-10T13:54:49.057Z,99420.72
2023-05-10T13:57:17.598Z,99419.84
2023-05-10T13:59:43.973Z,99420.59
2023-05-10T14:02:10.392Z,99420.41
2023-05-10T14:04:36.798Z,99421.47
2023-05-10T14:07:03.197Z,99422.28
2023-05-10T14:09:29.604Z,99427.34
2023-05-10T14:11:56.814Z,99423.72
2023-05-10T14:14:23.184Z,99423.31
2023-05-10T14:16:49.658Z,99419.00
2023-05-10T14:19:16.183Z,99410.94
2023-05-10T14:21:42.543Z,99411.50
2023-05-10T14:24:08.896Z,99406.91
2023-05-10T14:26:35.566Z,99416.13
2023-05-10T14:29:02.331Z,99415.00
2023-05-10T14:31:31.123Z,99413.59
2023-05-10T14:33:58.620Z,99413.84
2023-05-10T14:36:25.203Z,99413.03
2023-05-10T14:38:51.912Z,99419.81
2023-05-10T14:41:18.678Z,99417.38
2023-05-10T14:43:45.055Z,99418.13
2023-05-10T14:46:11.538Z,99413.56
2023-05-10T14:48:38.040Z,99426.44
2023-05-10T14:51:04.616Z,99422.47
2023-05-10T14:53:31.209Z,99426.28
2023-05-10T14:55:58.341Z,99423.25
2023-05-10T14:58:24.781Z,99425.84
2023-05-10T15:00:51.534Z,99422.09
2023-05-10T15:03:18.368Z,99424.91
2023-05-10T15:05:45.319Z,99419.53
2023-05-10T15:08:13.371Z,99433.84
2023-05-10T15:10:40.514Z,99434.63
2023-05-10T15:13:06.880Z,99432.88
2023-05-10T15:15:33.383Z,99445.00
2023-05-10T15:17:59.920Z,99439.88
2023-05-10T15:20:26.630Z,99436.50
2023-05-10T15:22:53.062Z,99436.84
2023-05-10T15:25:19.645Z,99433.91
2023-05-10T15:27:46.142Z,99446.94
2023-05-10T15:30:13.112Z,99453.00
2023-05-10T15:32:40.995Z,99452.41
2023-05-10T15:35:08.994Z,99447.94
2023-05-10T15:37:35.492Z,99461.28
2023-05-10T15:40:04.750Z,99452.16
2023-05-10T15:42:32.555Z,99459.44
2023-05-10T15:44:59.407Z,99453.66
2023-05-10T15:47:27.127Z,99458.00
2023-05-10T15:49:53.528Z,99459.63
2023-05-10T15:52:21.484Z,99452.78
2023-05-10T15:54:47.900Z,99460.09
2023-05-10T15:57:14.286Z,99458.31
2023-05-10T15:59:40.642Z,99459.94
2023-05-10T16:02:08.689Z,99472.41
2023-05-10T16:04:35.101Z,99466.47
2023-05-10T16:07:01.749Z,99467.28
2023-05-10T16:09:28.204Z,99472.22
2023-05-10T16:11:54.961Z,99469.53
2023-05-10T16:14:22.868Z,99467.13
2023-05-10T16:16:49.397Z,99471.91
2023-05-10T16:19:16.244Z,99477.44
2023-05-10T16:21:42.740Z,99463.91
2023-05-10T16:24:09.172Z,99478.53
2023-05-10T16:26:40.712Z,99483.69
2023-05-10T16:29:08.300Z,99477.19
2023-05-10T16:31:35.020Z,99485.03
2023-05-10T16:34:01.603Z,99489.28
2023-05-10T16:36:29.513Z,99488.06
2023-05-10T16:38:56.001Z,99491.81
2023-05-10T16:41:22.818Z,99493.00
2023-05-10T16:43:49.289Z,99492.41
2023-05-10T16:46:16.117Z,99494.75
2023-05-10T16:48:42.718Z,99496.88
2023-05-10T16:51:09.395Z,99501.63
2023-05-10T16:53:36.247Z,99491.31
2023-05-10T16:56:03.331Z,99503.38
2023-05-10T16:58:29.708Z,99507.59
2023-05-10T17:00:56.392Z,99506.66
2023-05-10T17:03:22.905Z,99504.41
2023-05-10T17:05:49.321Z,99504.31
2023-05-10T17:08:16.093Z,99498.38
2023-05-10T17:10:42.642Z,99501.44
2023-05-10T17:13:10.566Z,99514.16
2023-05-10T17:15:38.606Z,99512.25
2023-05-10T17:18:05.573Z,99517.25
2023-05-10T17:20:32.189Z,99519.47
2023-05-10T17:22:58.564Z,99515.97
2023-05-10T17:25:24.942Z,99524.91
2023-05-10T17:27:51.314Z,99523.50
2023-05-10T17:30:22.457Z,99531.03
2023-05-10T17:32:48.878Z,99521.53
2023-05-10T17:35:15.476Z,99533.41
2023-05-10T17:37:42.037Z,99543.47
2023-05-10T17:40:09.972Z,99548.44
2023-05-10T17:42:36.585Z,99536.09
2023-05-10T17:45:03.732Z,99537.91
2023-05-10T17:47:30.280Z,99546.38
2023-05-10T17:49:57.115Z,99541.03
2023-05-10T17:52:23.571Z,99541.03
2023-05-10T17:54:49.924Z,99551.31
2023-05-10T17:57:16.434Z,99556.94
2023-05-10T17:59:42.901Z,99556.38
2023-05-10T18:02:09.352Z,99556.78
2023-05-10T18:04:35.801Z,99555.53
2023-05-10T18:07:02.845Z,99549.56
2023-05-10T18:09:29.511Z,99553.06
2023-05-10T18:11:55.922Z,99554.94
2023-05-10T18:14:38.862Z,99559.72
2023-05-10T18:17:07.689Z,99562.59
2023-05-10T18:19:34.268Z,99566.09
2023-05-10T18:22:00.686Z,99565.72
2023-05-10T18:24:38.388Z,99566.97
2023-05-10T18:27:06.912Z,99562.63
2023-05-10T18:29:33.461Z,99568.22
2023-05-10T18:31:59.970Z,99566.16
2023-05-10T18:34:26.644Z,99575.63
2023-05-10T18:36:53.149Z,99570.47
2023-05-10T18:39:19.672Z,99572.56
2023-05-10T18:41:46.107Z,99582.44
2023-05-10T18:44:12.568Z,99583.66
2023-05-10T18:46:39.146Z,99581.19
2023-05-10T18:49:06.472Z,99585.75
2023-05-10T18:51:32.962Z,99582.28
2023-05-10T18:53:59.412Z,99588.63
2023-05-10T18:56:25.821Z,99588.22
2023-05-10T18:58:52.649Z,99588.66
2023-05-10T19:01:19.067Z,99598.53
2023-05-10T19:03:45.529Z,99596.69
2023-05-10T19:06:11.920Z,99598.56
2023-05-10T19:08:38.326Z,99594.22
2023-05-10T19:11:04.701Z,99600.19
2023-05-10T19:13:31.138Z,99611.53
2023-05-10T19:16:06.144Z,99607.19
2023-05-10T19:18:32.906Z,99613.78
2023-05-10T19:21:01.643Z,99617.50
2023-05-10T19:23:29.157Z,99624.09
2023-05-10T19:25:55.561Z,99629.03
2023-05-10T19:28:21.949Z,99629.22
2023-05-10T19:30:50.153Z,99625.50
2023-05-10T19:33:19.722Z,99622.84
2023-05-10T19:35:46.326Z,99621.81
2023-05-10T19:38:12.702Z,99631.91
2023-05-10T19:40:39.076Z,99630.28
2023-05-10T19:43:05.482Z,99624.91
2023-05-10T19:45:34.107Z,99628.41
2023-05-10T19:48:01.416Z,99628.41
2023-05-10T19:50:27.904Z,99629.00
2023-05-10T19:52:54.286Z,99630.69
2023-05-10T19:55:31.162Z,99636.84
2023-05-10T19:58:00.411Z,99628.16
2023-05-10T20:00:27.402Z,99625.25
2023-05-10T20:02:54.012Z,99628.13
2023-05-10T20:05:21.519Z,99631.22
2023-05-10T20:07:47.879Z,99635.94
2023-05-10T20:10:15.424Z,99626.47
2023-05-10T20:12:41.778Z,99631.91
2023-05-10T20:15:08.222Z,99635.34
2023-05-10T20:17:35.508Z,99631.81
2023-05-10T20:20:02.025Z,99634.47
2023-05-10T20:22:28.601Z,99633.03
2023-05-10T20:24:56.257Z,99633.44
2023-05-10T20:27:23.046Z,99625.38
2023-05-10T20:29:49.439Z,99631.75
2023-05-10T20:32:16.254Z,99634.81
2023-05-10T20:34:42.632Z,99634.59
2023-05-10T20:37:09.092Z,99627.84
2023-05-10T20:39:35.512Z,99630.50
2023-05-10T20:42:01.858Z,99628.00
2023-05-10T20:44:28.196Z,99630.03
2023-05-10T20:46:54.571Z,99637.88
2023-05-10T20:49:21.779Z,99635.78
2023-05-10T20:51:48.309Z,99637.88
2023-05-10T20:54:14.680Z,99636.19
2023-05-10T20:56:41.333Z,99631.19
2023-05-10T20:59:07.995Z,99632.84
2023-05-10T21:01:34.386Z,99637.16
2023-05-10T21:04:00.764Z,99644.00
2023-05-10T21:06:27.142Z,99633.63
2023-05-10T21:08:53.483Z,99630.13
2023-05-10T21:11:19.840Z,99632.72
2023-05-10T21:13:46.282Z,99637.25
2023-05-10T21:16:12.708Z,99631.91
2023-05-10T21:18:39.215Z,99637.00
2023-05-10T21:21:05.699Z,99633.50
2023-05-10T21:23:34.449Z,99641.25
2023-05-10T21:26:05.521Z,99643.31
2023-05-10T21:28:31.877Z,99634.00
2023-05-10T21:30:58.349Z,99637.03
2023-05-10T21:33:24.760Z,99640.34
2023-05-10T21:35:51.183Z,99637.41
2023-05-10T21:38:17.608Z,99644.34
2023-05-10T21:40:43.981Z,99640.25
2023-05-10T21:43:11.255Z,99644.13
2023-05-10T21:45:38.104Z,99639.41
2023-05-10T21:48:04.690Z,99641.25
2023-05-10T21:50:31.116Z,99637.75
2023-05-10T21:52:57.743Z,99640.56
2023-05-10T21:55:24.228Z,99642.59
2023-05-10T21:57:51.057Z,99643.19
2023-05-10T22:00:19.313Z,99655.31
2023-05-10T22:02:46.758Z,99654.44
2023-05-10T22:05:13.452Z,99652.78
2023-05-10T22:07:39.915Z,99652.72
2023-05-10T22:10:07.828Z,99655.97
2023-05-10T22:12:34.177Z,99651.13
2023-05-10T22:15:10.260Z,99657.59
2023-05-10T22:17:39.557Z,99650.56
2023-05-10T22:20:09.726Z,99656.34
2023-05-10T22:22:36.675Z,99655.06
2023-05-10T22:25:03.799Z,99655.91
2023-05-10T22:27:30.155Z,99654.19
2023-05-10T22:29:56.662Z,99656.22
2023-05-10T22:32:23.127Z,99655.31
2023-05-10T22:34:49.501Z,99659.09
2023-05-10T22:37:17.885Z,99648.25
2023-05-10T22:39:48.733Z,99665.03
2023-05-10T22:42:15.607Z,99655.88
2023-05-10T22:44:42.826Z,99648.47
2023-05-10T22:47:09.378Z,99649.59
2023-05-10T22:49:36.804Z,99645.03
2023-05-10T22:52:03.221Z,99658.88
2023-05-10T22:54:29.595Z,99656.31
2023-05-10T22:56:56.497Z,99652.81
2023-05-10T22:59:23.394Z,99651.72
2023-05-10T23:01:49.784Z,99657.81
2023-05-10T23:04:16.208Z,99659.84
2023-05-10T23:06:42.730Z,99669.41
2023-05-10T23:09:09.784Z,99654.25
2023-05-10T23:11:36.417Z,99664.34
2023-05-10T23:14:03.070Z,99668.56
2023-05-10T23:16:29.779Z,99661.13
2023-05-10T23:18:56.243Z,99663.81
2023-05-10T23:21:22.733Z,99665.91
2023-05-10T23:23:49.332Z,99664.34
2023-05-10T23:26:16.262Z,99665.00
2023-05-10T23:28:42.641Z,99657.00
2023-05-10T23:31:09.009Z,99666.13
2023-05-10T23:33:35.380Z,99668.88
2023-05-10T23:36:01.834Z,99666.22
2023-05-10T23:38:28.523Z,99676.78
2023-05-10T23:40:54.947Z,99667.13
2023-05-10T23:43:21.819Z,99668.06
2023-05-10T23:45:58.225Z,99667.59
2023-05-10T23:48:25.107Z,99658.41
2023-05-10T23:50:51.756Z,99667.84
2023-05-10T23:53:18.163Z,99661.16
2023-05-10T23:55:45.437Z,99656.72
2023-05-10T23:58:12.495Z,99664.94
